Hauptseite
METAR-TAF:

METAR-TAF

Flughäfen :

Blackpool Airport

Blackpool, England

Breite: 53-46N, Länge: 003-02W, Höhe: 10 m

Beobachtung

Neuester Wetterbericht von vor 13 Minuten, um 13:20 UTC
Wind 9 kt aus West/Nordwest
Temperatur 15°C
Luftfeuchtigkeit 77%
Luftdruck 1016 hPa
Sichtweite 10 km oder mehr
Leicht bewölkt in der Höhe von 2400 ft

METAR: EGNH 231320Z 29009KT 9999 FEW024 15/11 Q1016

Zeit: 14:33 (13:33 UTC)

Prognose

Neuester Wetterbericht von vor 2 Stunden und 37 Minuten, um 10:56 UTC
Gültige Prognose vom 23 um 12 UTC bis 23 um 20 UTC
Wind 9 kt aus West
Sichtweite 10 km oder mehr
Leicht bewölkt in der Höhe von 2000 ft

TAF: EGNH 231056Z 2312/2320 27009KT 9999 FEW020

Wetterbeobachtungen und Prognosen von mehr als 4000 Flughäfen (METAR und TAF Bericht).

Die verfügbaren Stationen werden durch gelbe und rote Markierungen auf der Karte dargestellt.

Führen Sie die Maus auf sie, um den Namen der Station zu sehen.

Darauf klicken, um die Beobachtung von Wetterbeobachtungen und Prognosen zu sehen.

Um die Karte zu ändern : klicken Sie auf den grünen Tasten mit einem schwarzen Kreuz Zum Vergrößern, auf den grünen Button mit einem Gedankenstrich zu verkleinern, oder auf die grünen Pfeile für benachbarte Karten.


METAR-TAF: